sensor_id;sensor_type;location;lat;lon;timestamp;pressure;altitude;pressure_sealevel;temperature;humidity
53900;BME280;40509;32.858;-116.858;2023-04-02T00:08:03;98338.34;;;19.75;48.05
53900;BME280;40509;32.858;-116.858;2023-04-02T00:10:38;98342.72;;;19.75;48.21
53900;BME280;40509;32.858;-116.858;2023-04-02T00:15:47;98340.97;;;19.75;48.08
53900;BME280;40509;32.858;-116.858;2023-04-02T00:18:17;98346.06;;;19.77;48.36
53900;BME280;40509;32.858;-116.858;2023-04-02T00:20:50;98347.84;;;19.76;48.22
53900;BME280;40509;32.858;-116.858;2023-04-02T00:23:19;98349.50;;;19.77;48.06
53900;BME280;40509;32.858;-116.858;2023-04-02T00:25:46;98358.09;;;19.79;48.42
53900;BME280;40509;32.858;-116.858;2023-04-02T00:28:18;98355.09;;;19.84;48.05
53900;BME280;40509;32.858;-116.858;2023-04-02T00:30:55;98358.44;;;19.86;47.99
53900;BME280;40509;32.858;-116.858;2023-04-02T00:33:29;98351.38;;;19.86;48.19
53900;BME280;40509;32.858;-116.858;2023-04-02T00:35:57;98346.00;;;19.88;48.12
53900;BME280;40509;32.858;-116.858;2023-04-02T00:38:32;98353.06;;;19.87;48.19
53900;BME280;40509;32.858;-116.858;2023-04-02T00:41:02;98353.06;;;19.87;48.29
53900;BME280;40509;32.858;-116.858;2023-04-02T00:43:36;98361.72;;;19.88;48.22
53900;BME280;40509;32.858;-116.858;2023-04-02T00:46:13;98360.78;;;19.89;48.35
53900;BME280;40509;32.858;-116.858;2023-04-02T00:49:06;98372.78;;;19.92;48.26
53900;BME280;40509;32.858;-116.858;2023-04-02T00:51:39;98369.47;;;19.90;48.15
53900;BME280;40509;32.858;-116.858;2023-04-02T00:54:10;98363.25;;;19.91;48.64
53900;BME280;40509;32.858;-116.858;2023-04-02T00:56:47;98366.69;;;19.91;48.39
53900;BME280;40509;32.858;-116.858;2023-04-02T00:59:30;98365.06;;;19.90;48.57
53900;BME280;40509;32.858;-116.858;2023-04-02T01:24:33;98390.72;;;19.96;48.85
53900;BME280;40509;32.858;-116.858;2023-04-02T01:29:45;98391.03;;;20.03;49.08
53900;BME280;40509;32.858;-116.858;2023-04-02T01:32:16;98392.44;;;20.07;49.04
53900;BME280;40509;32.858;-116.858;2023-04-02T01:34:46;98391.63;;;20.07;49.25
53900;BME280;40509;32.858;-116.858;2023-04-02T01:45:30;98404.00;;;20.04;49.56
53900;BME280;40509;32.858;-116.858;2023-04-02T01:47:58;98409.13;;;20.06;49.43
53900;BME280;40509;32.858;-116.858;2023-04-02T01:50:28;98410.94;;;20.05;49.35
53900;BME280;40509;32.858;-116.858;2023-04-02T01:53:02;98413.53;;;20.05;49.79
53900;BME280;40509;32.858;-116.858;2023-04-02T01:55:46;98415.06;;;20.08;49.86
53900;BME280;40509;32.858;-116.858;2023-04-02T01:58:19;98424.16;;;20.04;49.94
53900;BME280;40509;32.858;-116.858;2023-04-02T02:01:07;98422.88;;;19.98;50.10
53900;BME280;40509;32.858;-116.858;2023-04-02T02:03:46;98423.03;;;19.97;50.01
53900;BME280;40509;32.858;-116.858;2023-04-02T02:06:15;98431.69;;;19.97;50.18
53900;BME280;40509;32.858;-116.858;2023-04-02T02:08:48;98431.97;;;19.94;50.27
53900;BME280;40509;32.858;-116.858;2023-04-02T02:11:20;98429.97;;;19.86;49.17
53900;BME280;40509;32.858;-116.858;2023-04-02T02:13:53;98431.13;;;19.94;49.57
53900;BME280;40509;32.858;-116.858;2023-04-02T02:16:22;98437.06;;;19.96;49.69
53900;BME280;40509;32.858;-116.858;2023-04-02T02:18:55;98436.22;;;19.95;49.97
53900;BME280;40509;32.858;-116.858;2023-04-02T02:21:44;98437.06;;;19.96;50.12
53900;BME280;40509;32.858;-116.858;2023-04-02T02:24:23;98438.75;;;19.97;50.39
53900;BME280;40509;32.858;-116.858;2023-04-02T02:32:45;98444.66;;;19.99;50.72
53900;BME280;40509;32.858;-116.858;2023-04-02T02:35:28;98445.75;;;19.96;50.74
53900;BME280;40509;32.858;-116.858;2023-04-02T02:38:21;98442.69;;;19.91;50.82
53900;BME280;40509;32.858;-116.858;2023-04-02T02:40:55;98435.09;;;19.88;51.18
53900;BME280;40509;32.858;-116.858;2023-04-02T02:43:25;98441.53;;;19.84;50.86
53900;BME280;40509;32.858;-116.858;2023-04-02T02:45:54;98445.69;;;19.86;50.76
53900;BME280;40509;32.858;-116.858;2023-04-02T02:48:29;98443.34;;;19.83;51.05
53900;BME280;40509;32.858;-116.858;2023-04-02T02:51:03;98447.72;;;19.83;51.10
53900;BME280;40509;32.858;-116.858;2023-04-02T02:53:32;98450.22;;;19.84;51.21
53900;BME280;40509;32.858;-116.858;2023-04-02T02:56:10;98445.34;;;19.80;51.29
53900;BME280;40509;32.858;-116.858;2023-04-02T02:58:40;98445.47;;;19.78;51.52
53900;BME280;40509;32.858;-116.858;2023-04-02T03:01:33;98449.88;;;19.78;51.51
53900;BME280;40509;32.858;-116.858;2023-04-02T03:04:04;98449.03;;;19.77;51.14
53900;BME280;40509;32.858;-116.858;2023-04-02T03:06:32;98461.31;;;19.77;51.24
53900;BME280;40509;32.858;-116.858;2023-04-02T03:09:16;98454.41;;;19.76;51.13
53900;BME280;40509;32.858;-116.858;2023-04-02T03:14:37;98455.38;;;19.75;51.51
53900;BME280;40509;32.858;-116.858;2023-04-02T03:17:33;98458.13;;;19.73;51.27
53900;BME280;40509;32.858;-116.858;2023-04-02T03:20:23;98459.06;;;19.72;51.25
53900;BME280;40509;32.858;-116.858;2023-04-02T03:23:04;98461.69;;;19.72;51.51
53900;BME280;40509;32.858;-116.858;2023-04-02T03:29:16;98458.38;;;19.70;51.30
53900;BME280;40509;32.858;-116.858;2023-04-02T03:31:49;98455.88;;;19.68;51.58
53900;BME280;40509;32.858;-116.858;2023-04-02T03:34:27;98459.47;;;19.67;51.75
53900;BME280;40509;32.858;-116.858;2023-04-02T03:36:57;98455.16;;;19.66;51.55
53900;BME280;40509;32.858;-116.858;2023-04-02T03:39:46;98462.22;;;19.66;51.58
53900;BME280;40509;32.858;-116.858;2023-04-02T03:42:21;98456.13;;;19.65;51.94
53900;BME280;40509;32.858;-116.858;2023-04-02T03:45:01;98459.72;;;19.64;51.77
53900;BME280;40509;32.858;-116.858;2023-04-02T03:50:48;98459.81;;;19.63;52.02
53900;BME280;40509;32.858;-116.858;2023-04-02T03:53:17;98466.84;;;19.62;51.67
53900;BME280;40509;32.858;-116.858;2023-04-02T03:55:45;98459.94;;;19.61;52.10
53900;BME280;40509;32.858;-116.858;2023-04-02T03:58:16;98463.56;;;19.60;52.20
53900;BME280;40509;32.858;-116.858;2023-04-02T04:00:59;98464.38;;;19.61;52.20
53900;BME280;40509;32.858;-116.858;2023-04-02T04:06:09;98471.50;;;19.59;51.95
53900;BME280;40509;32.858;-116.858;2023-04-02T04:08:48;98469.00;;;19.57;52.21
53900;BME280;40509;32.858;-116.858;2023-04-02T04:11:23;98477.72;;;19.58;52.00
53900;BME280;40509;32.858;-116.858;2023-04-02T04:14:00;98484.72;;;19.57;52.20
53900;BME280;40509;32.858;-116.858;2023-04-02T04:16:44;98476.06;;;19.57;52.32
53900;BME280;40509;32.858;-116.858;2023-04-02T04:22:28;98493.66;;;19.54;52.17
53900;BME280;40509;32.858;-116.858;2023-04-02T04:25:06;98492.03;;;19.53;52.27
53900;BME280;40509;32.858;-116.858;2023-04-02T04:28:06;98494.88;;;19.50;52.43
53900;BME280;40509;32.858;-116.858;2023-04-02T04:33:22;98500.09;;;19.50;52.57
53900;BME280;40509;32.858;-116.858;2023-04-02T04:35:58;98500.09;;;19.50;52.22
53900;BME280;40509;32.858;-116.858;2023-04-02T04:38:33;98505.34;;;19.50;52.39
53900;BME280;40509;32.858;-116.858;2023-04-02T04:41:15;98504.53;;;19.50;52.35
53900;BME280;40509;32.858;-116.858;2023-04-02T04:44:00;98505.59;;;19.47;52.42
53900;BME280;40509;32.858;-116.858;2023-04-02T04:47:07;98507.25;;;19.48;52.26
53900;BME280;40509;32.858;-116.858;2023-04-02T04:49:41;98496.91;;;19.47;52.33
53900;BME280;40509;32.858;-116.858;2023-04-02T04:52:21;98497.88;;;19.46;52.05
53900;BME280;40509;32.858;-116.858;2023-04-02T04:54:51;98503.22;;;19.44;52.01
53900;BME280;40509;32.858;-116.858;2023-04-02T04:57:34;98495.38;;;19.44;52.15
53900;BME280;40509;32.858;-116.858;2023-04-02T05:03:02;98495.50;;;19.43;51.96
53900;BME280;40509;32.858;-116.858;2023-04-02T05:05:37;98492.03;;;19.42;52.22
53900;BME280;40509;32.858;-116.858;2023-04-02T05:08:16;98494.91;;;19.39;52.28
53900;BME280;40509;32.858;-116.858;2023-04-02T05:10:55;98493.38;;;19.36;51.83
53900;BME280;40509;32.858;-116.858;2023-04-02T05:14:04;98495.16;;;19.36;52.18
53900;BME280;40509;32.858;-116.858;2023-04-02T05:19:17;98500.63;;;19.33;51.93
53900;BME280;40509;32.858;-116.858;2023-04-02T05:24:50;98501.34;;;19.35;51.84
53900;BME280;40509;32.858;-116.858;2023-04-02T05:27:38;98495.38;;;19.33;51.90
53900;BME280;40509;32.858;-116.858;2023-04-02T05:33:02;98495.91;;;19.27;52.04
53900;BME280;40509;32.858;-116.858;2023-04-02T05:35:36;98483.75;;;19.26;52.05
53900;BME280;40509;32.858;-116.858;2023-04-02T05:38:07;98490.91;;;19.24;52.17
53900;BME280;40509;32.858;-116.858;2023-04-02T05:40:41;98488.31;;;19.24;51.99
53900;BME280;40509;32.858;-116.858;2023-04-02T05:43:16;98492.69;;;19.23;52.27
53900;BME280;40509;32.858;-116.858;2023-04-02T05:45:53;98491.00;;;19.22;51.98
53900;BME280;40509;32.858;-116.858;2023-04-02T05:48:42;98495.16;;;19.25;51.95
53900;BME280;40509;32.858;-116.858;2023-04-02T05:51:21;98482.59;;;19.18;52.15
53900;BME280;40509;32.858;-116.858;2023-04-02T05:53:57;98489.72;;;19.16;51.82
53900;BME280;40509;32.858;-116.858;2023-04-02T05:59:30;98479.38;;;19.15;51.94
53900;BME280;40509;32.858;-116.858;2023-04-02T06:04:56;98473.31;;;19.14;51.84
53900;BME280;40509;32.858;-116.858;2023-04-02T06:07:46;98470.94;;;19.11;52.35
53900;BME280;40509;32.858;-116.858;2023-04-02T06:10:41;98471.19;;;19.08;52.08
53900;BME280;40509;32.858;-116.858;2023-04-02T06:13:17;98469.41;;;19.09;52.15
53900;BME280;40509;32.858;-116.858;2023-04-02T06:15:45;98469.97;;;19.24;51.67
53900;BME280;40509;32.858;-116.858;2023-04-02T06:18:24;98463.75;;;19.25;51.73
53900;BME280;40509;32.858;-116.858;2023-04-02T06:20:53;98457.25;;;19.19;51.47
53900;BME280;40509;32.858;-116.858;2023-04-02T06:26:18;98448.00;;;19.03;52.16
53900;BME280;40509;32.858;-116.858;2023-04-02T06:31:58;98441.38;;;18.99;51.86
53900;BME280;40509;32.858;-116.858;2023-04-02T06:34:29;98436.94;;;19.00;51.94
53900;BME280;40509;32.858;-116.858;2023-04-02T06:37:34;98449.56;;;18.95;52.11
53900;BME280;40509;32.858;-116.858;2023-04-02T06:40:49;98447.19;;;18.92;52.42
53900;BME280;40509;32.858;-116.858;2023-04-02T06:44:01;98448.34;;;18.87;52.47
53900;BME280;40509;32.858;-116.858;2023-04-02T06:47:03;98447.44;;;18.89;52.27
53900;BME280;40509;32.858;-116.858;2023-04-02T06:49:57;98444.84;;;18.89;52.03
53900;BME280;40509;32.858;-116.858;2023-04-02T06:52:33;98440.50;;;18.87;52.02
53900;BME280;40509;32.858;-116.858;2023-04-02T06:57:47;98436.47;;;18.83;52.35
53900;BME280;40509;32.858;-116.858;2023-04-02T07:00:41;98437.91;;;18.87;51.89
53900;BME280;40509;32.858;-116.858;2023-04-02T07:03:29;98437.69;;;18.91;51.56
53900;BME280;40509;32.858;-116.858;2023-04-02T07:06:01;98436.97;;;18.89;51.59
53900;BME280;40509;32.858;-116.858;2023-04-02T07:08:30;98437.91;;;18.87;51.77
53900;BME280;40509;32.858;-116.858;2023-04-02T07:10:58;98433.72;;;18.85;51.84
53900;BME280;40509;32.858;-116.858;2023-04-02T07:13:26;98441.25;;;18.90;51.93
53900;BME280;40509;32.858;-116.858;2023-04-02T07:15:54;98437.16;;;18.85;51.88
53900;BME280;40509;32.858;-116.858;2023-04-02T07:18:27;98431.63;;;18.79;51.86
53900;BME280;40509;32.858;-116.858;2023-04-02T07:20:57;98441.84;;;18.82;52.21
53900;BME280;40509;32.858;-116.858;2023-04-02T07:23:25;98444.31;;;18.83;52.02
53900;BME280;40509;32.858;-116.858;2023-04-02T07:25:53;98447.06;;;18.82;52.07
53900;BME280;40509;32.858;-116.858;2023-04-02T07:28:22;98452.53;;;18.79;51.99
53900;BME280;40509;32.858;-116.858;2023-04-02T07:30:50;98452.53;;;18.79;51.88
53900;BME280;40509;32.858;-116.858;2023-04-02T07:33:21;98444.91;;;18.76;51.62
53900;BME280;40509;32.858;-116.858;2023-04-02T07:35:50;98445.78;;;18.76;51.95
53900;BME280;40509;32.858;-116.858;2023-04-02T07:38:17;98457.19;;;18.75;51.92
53900;BME280;40509;32.858;-116.858;2023-04-02T07:40:45;98448.50;;;18.75;52.02
53900;BME280;40509;32.858;-116.858;2023-04-02T07:43:13;98454.31;;;18.78;51.87
53900;BME280;40509;32.858;-116.858;2023-04-02T07:45:40;98459.66;;;18.77;51.79
53900;BME280;40509;32.858;-116.858;2023-04-02T07:48:11;98463.47;;;18.73;51.75
53900;BME280;40509;32.858;-116.858;2023-04-02T07:50:38;98460.03;;;18.72;51.96
53900;BME280;40509;32.858;-116.858;2023-04-02T07:53:06;98461.94;;;18.70;51.55
53900;BME280;40509;32.858;-116.858;2023-04-02T07:55:34;98462.66;;;18.72;51.71
53900;BME280;40509;32.858;-116.858;2023-04-02T07:58:02;98466.22;;;18.71;51.91
53900;BME280;40509;32.858;-116.858;2023-04-02T08:00:29;98470.84;;;18.67;51.56
53900;BME280;40509;32.858;-116.858;2023-04-02T08:02:57;98470.72;;;18.69;51.42
53900;BME280;40509;32.858;-116.858;2023-04-02T08:05:24;98474.31;;;18.68;51.57
53900;BME280;40509;32.858;-116.858;2023-04-02T08:07:55;98472.03;;;18.63;51.71
53900;BME280;40509;32.858;-116.858;2023-04-02T08:10:23;98471.91;;;18.65;51.40
53900;BME280;40509;32.858;-116.858;2023-04-02T08:12:50;98468.47;;;18.64;51.42
53900;BME280;40509;32.858;-116.858;2023-04-02T08:15:17;98466.09;;;18.61;51.61
53900;BME280;40509;32.858;-116.858;2023-04-02T08:17:45;98472.16;;;18.62;51.25
53900;BME280;40509;32.858;-116.858;2023-04-02T08:20:16;98460.03;;;18.61;51.50
53900;BME280;40509;32.858;-116.858;2023-04-02T08:22:45;98466.31;;;18.58;51.36
53900;BME280;40509;32.858;-116.858;2023-04-02T08:25:13;98461.69;;;18.62;51.25
53900;BME280;40509;32.858;-116.858;2023-04-02T08:27:40;98453.72;;;18.63;51.19
53900;BME280;40509;32.858;-116.858;2023-04-02T08:30:10;98454.78;;;18.61;51.25
53900;BME280;40509;32.858;-116.858;2023-04-02T08:32:38;98456.59;;;18.60;51.22
53900;BME280;40509;32.858;-116.858;2023-04-02T08:35:10;98450.03;;;18.66;51.24
53900;BME280;40509;32.858;-116.858;2023-04-02T08:37:38;98451.59;;;18.57;51.37
53900;BME280;40509;32.858;-116.858;2023-04-02T08:40:06;98459.78;;;18.52;51.19
53900;BME280;40509;32.858;-116.858;2023-04-02T08:42:43;98451.59;;;18.57;51.13
53900;BME280;40509;32.858;-116.858;2023-04-02T08:47:51;98452.78;;;18.53;51.11
53900;BME280;40509;32.858;-116.858;2023-04-02T08:50:38;98443.28;;;18.52;51.20
53900;BME280;40509;32.858;-116.858;2023-04-02T08:53:14;98446.13;;;18.49;51.20
53900;BME280;40509;32.858;-116.858;2023-04-02T08:55:59;98447.22;;;18.46;51.50
53900;BME280;40509;32.858;-116.858;2023-04-02T08:58:38;98442.91;;;18.45;51.28
53900;BME280;40509;32.858;-116.858;2023-04-02T09:03:56;98434.84;;;18.48;51.30
53900;BME280;40509;32.858;-116.858;2023-04-02T09:06:25;98433.41;;;18.44;51.10
53900;BME280;40509;32.858;-116.858;2023-04-02T09:08:55;98432.94;;;18.39;51.25
53900;BME280;40509;32.858;-116.858;2023-04-02T09:13:59;98440.75;;;18.39;51.43
53900;BME280;40509;32.858;-116.858;2023-04-02T09:19:24;98436.38;;;18.40;51.08
53900;BME280;40509;32.858;-116.858;2023-04-02T09:22:06;98439.69;;;18.42;51.07
53900;BME280;40509;32.858;-116.858;2023-04-02T09:24:34;98441.25;;;18.44;51.31
53900;BME280;40509;32.858;-116.858;2023-04-02T09:27:08;98432.22;;;18.37;51.36
53900;BME280;40509;32.858;-116.858;2023-04-02T09:32:57;98424.38;;;18.37;51.28
53900;BME280;40509;32.858;-116.858;2023-04-02T09:35:29;98426.41;;;18.33;51.20
53900;BME280;40509;32.858;-116.858;2023-04-02T09:40:57;98418.56;;;18.33;51.19
53900;BME280;40509;32.858;-116.858;2023-04-02T09:43:33;98421.41;;;18.30;51.08
53900;BME280;40509;32.858;-116.858;2023-04-02T09:46:12;98406.22;;;18.35;50.88
53900;BME280;40509;32.858;-116.858;2023-04-02T09:48:48;98409.53;;;18.26;51.16
53900;BME280;40509;32.858;-116.858;2023-04-02T09:51:23;98409.88;;;18.22;51.09
53900;BME280;40509;32.858;-116.858;2023-04-02T09:56:36;98405.97;;;18.27;50.90
53900;BME280;40509;32.858;-116.858;2023-04-02T09:59:13;98408.59;;;18.27;50.71
53900;BME280;40509;32.858;-116.858;2023-04-02T10:04:45;98407.75;;;18.27;50.89
53900;BME280;40509;32.858;-116.858;2023-04-02T10:07:36;98403.69;;;18.23;50.95
53900;BME280;40509;32.858;-116.858;2023-04-02T10:10:18;98400.03;;;18.25;50.73
53900;BME280;40509;32.858;-116.858;2023-04-02T10:12:50;98398.72;;;18.19;50.75
53900;BME280;40509;32.858;-116.858;2023-04-02T10:15:31;98396.34;;;18.16;51.02
53900;BME280;40509;32.858;-116.858;2023-04-02T10:18:11;98395.16;;;18.20;50.83
53900;BME280;40509;32.858;-116.858;2023-04-02T10:20:42;98400.25;;;18.11;50.78
53900;BME280;40509;32.858;-116.858;2023-04-02T10:23:15;98387.91;;;18.13;50.84
53900;BME280;40509;32.858;-116.858;2023-04-02T10:34:38;98380.19;;;18.11;50.96
53900;BME280;40509;32.858;-116.858;2023-04-02T10:48:45;98372.00;;;18.05;50.66
53900;BME280;40509;32.858;-116.858;2023-04-02T10:51:45;98367.09;;;18.00;51.04
53900;BME280;40509;32.858;-116.858;2023-04-02T10:56:45;98363.09;;;18.07;50.50
53900;BME280;40509;32.858;-116.858;2023-04-02T10:59:22;98354.66;;;18.03;50.76
53900;BME280;40509;32.858;-116.858;2023-04-02T11:01:52;98355.22;;;17.96;50.57
53900;BME280;40509;32.858;-116.858;2023-04-02T11:04:31;98348.94;;;17.98;50.65
53900;BME280;40509;32.858;-116.858;2023-04-02T11:07:05;98353.88;;;17.90;50.81
53900;BME280;40509;32.858;-116.858;2023-04-02T11:09:39;98347.38;;;17.96;50.90
53900;BME280;40509;32.858;-116.858;2023-04-02T11:12:30;98350.72;;;17.98;50.92
53900;BME280;40509;32.858;-116.858;2023-04-02T11:14:59;98351.06;;;17.93;50.70
53900;BME280;40509;32.858;-116.858;2023-04-02T11:17:27;98348.78;;;17.89;50.85
53900;BME280;40509;32.858;-116.858;2023-04-02T11:23:11;98354.50;;;17.82;50.82
53900;BME280;40509;32.858;-116.858;2023-04-02T11:25:40;98349.03;;;17.85;50.75
53900;BME280;40509;32.858;-116.858;2023-04-02T11:28:26;98346.41;;;17.85;50.70
53900;BME280;40509;32.858;-116.858;2023-04-02T11:30:54;98347.94;;;17.77;50.79
53900;BME280;40509;32.858;-116.858;2023-04-02T11:36:01;98354.72;;;17.79;50.75
53900;BME280;40509;32.858;-116.858;2023-04-02T11:41:12;98349.72;;;17.76;50.95
53900;BME280;40509;32.858;-116.858;2023-04-02T11:48:43;98365.97;;;17.68;50.72
53900;BME280;40509;32.858;-116.858;2023-04-02T11:53:51;98359.44;;;17.74;50.89
53900;BME280;40509;32.858;-116.858;2023-04-02T11:56:31;98360.75;;;17.68;50.64
53900;BME280;40509;32.858;-116.858;2023-04-02T12:10:32;98362.53;;;17.68;50.54
53900;BME280;40509;32.858;-116.858;2023-04-02T12:13:45;98350.53;;;17.65;50.27
53900;BME280;40509;32.858;-116.858;2023-04-02T12:16:12;98344.25;;;17.68;50.48
53900;BME280;40509;32.858;-116.858;2023-04-02T12:18:48;98346.75;;;17.69;50.31
53900;BME280;40509;32.858;-116.858;2023-04-02T12:21:22;98341.97;;;17.63;50.24
53900;BME280;40509;32.858;-116.858;2023-04-02T12:23:52;98342.59;;;17.67;50.11
53900;BME280;40509;32.858;-116.858;2023-04-02T12:31:49;98338.78;;;17.60;50.42
53900;BME280;40509;32.858;-116.858;2023-04-02T12:34:19;98336.06;;;17.61;50.37
53900;BME280;40509;32.858;-116.858;2023-04-02T12:36:54;98341.84;;;17.53;50.38
53900;BME280;40509;32.858;-116.858;2023-04-02T12:39:23;98335.56;;;17.56;50.19
53900;BME280;40509;32.858;-116.858;2023-04-02T12:41:50;98341.13;;;17.51;50.10
53900;BME280;40509;32.858;-116.858;2023-04-02T12:44:20;98336.63;;;17.53;50.24
53900;BME280;40509;32.858;-116.858;2023-04-02T12:46:49;98335.19;;;17.49;50.30
53900;BME280;40509;32.858;-116.858;2023-04-02T12:52:08;98338.53;;;17.51;50.09
53900;BME280;40509;32.858;-116.858;2023-04-02T12:54:46;98337.09;;;17.47;50.35
53900;BME280;40509;32.858;-116.858;2023-04-02T13:02:48;98335.19;;;17.38;50.17
53900;BME280;40509;32.858;-116.858;2023-04-02T13:05:37;98345.38;;;17.41;50.01
53900;BME280;40509;32.858;-116.858;2023-04-02T13:08:28;98338.47;;;17.40;50.18
53900;BME280;40509;32.858;-116.858;2023-04-02T13:11:00;98341.22;;;17.39;49.98
53900;BME280;40509;32.858;-116.858;2023-04-02T13:13:32;98331.84;;;17.36;50.03
53900;BME280;40509;32.858;-116.858;2023-04-02T13:18:36;98327.09;;;17.41;50.08
53900;BME280;40509;32.858;-116.858;2023-04-02T13:21:06;98334.94;;;17.41;50.10
53900;BME280;40509;32.858;-116.858;2023-04-02T13:23:49;98331.38;;;17.42;49.74
53900;BME280;40509;32.858;-116.858;2023-04-02T13:26:27;98327.59;;;17.35;50.14
53900;BME280;40509;32.858;-116.858;2023-04-02T13:29:27;98329.00;;;17.39;50.01
53900;BME280;40509;32.858;-116.858;2023-04-02T13:32:09;98326.63;;;17.36;49.85
53900;BME280;40509;32.858;-116.858;2023-04-02T13:34:38;98330.78;;;17.39;50.29
53900;BME280;40509;32.858;-116.858;2023-04-02T13:37:05;98331.44;;;17.29;50.24
53900;BME280;40509;32.858;-116.858;2023-04-02T13:39:32;98328.53;;;17.34;49.93
53900;BME280;40509;32.858;-116.858;2023-04-02T13:42:02;98335.19;;;17.38;49.83
53900;BME280;40509;32.858;-116.858;2023-04-02T13:44:31;98331.56;;;17.28;49.95
53900;BME280;40509;32.858;-116.858;2023-04-02T13:47:00;98331.38;;;17.31;49.96
53900;BME280;40509;32.858;-116.858;2023-04-02T13:49:28;98331.38;;;17.31;49.81
53900;BME280;40509;32.858;-116.858;2023-04-02T13:51:57;98340.13;;;17.30;49.74
53900;BME280;40509;32.858;-116.858;2023-04-02T13:57:12;98338.81;;;17.24;49.80
53900;BME280;40509;32.858;-116.858;2023-04-02T13:59:40;98332.97;;;17.21;49.99
53900;BME280;40509;32.858;-116.858;2023-04-02T14:02:16;98333.59;;;17.24;49.67
53900;BME280;40509;32.858;-116.858;2023-04-02T14:04:48;98343.41;;;17.21;49.89
53900;BME280;40509;32.858;-116.858;2023-04-02T14:10:18;98341.50;;;17.23;49.93
53900;BME280;40509;32.858;-116.858;2023-04-02T14:13:17;98339.75;;;17.23;49.66
53900;BME280;40509;32.858;-116.858;2023-04-02T14:19:00;98340.06;;;17.18;49.72
53900;BME280;40509;32.858;-116.858;2023-04-02T14:27:04;98336.22;;;17.24;49.57
53900;BME280;40509;32.858;-116.858;2023-04-02T14:30:04;98332.75;;;17.24;49.46
53900;BME280;40509;32.858;-116.858;2023-04-02T14:32:47;98338.69;;;17.26;49.54
53900;BME280;40509;32.858;-116.858;2023-04-02T14:35:48;98338.09;;;17.22;49.29
53900;BME280;40509;32.858;-116.858;2023-04-02T14:44:03;98345.47;;;17.28;49.03
53900;BME280;40509;32.858;-116.858;2023-04-02T14:46:35;98353.19;;;17.30;48.73
53900;BME280;40509;32.858;-116.858;2023-04-02T14:49:14;98356.47;;;17.21;49.29
53900;BME280;40509;32.858;-116.858;2023-04-02T14:51:48;98349.13;;;17.26;49.64
53900;BME280;40509;32.858;-116.858;2023-04-02T14:57:19;98351.38;;;17.19;49.08
53900;BME280;40509;32.858;-116.858;2023-04-02T15:03:21;98351.13;;;17.22;48.78
53900;BME280;40509;32.858;-116.858;2023-04-02T15:06:10;98350.41;;;17.20;49.41
53900;BME280;40509;32.858;-116.858;2023-04-02T15:08:51;98346.63;;;17.24;48.89
53900;BME280;40509;32.858;-116.858;2023-04-02T15:11:35;98346.25;;;17.17;49.19
53900;BME280;40509;32.858;-116.858;2023-04-02T15:14:34;98341.44;;;17.24;49.43
53900;BME280;40509;32.858;-116.858;2023-04-02T15:17:04;98346.72;;;17.23;50.32
53900;BME280;40509;32.858;-116.858;2023-04-02T15:19:32;98350.19;;;17.23;50.31
53900;BME280;40509;32.858;-116.858;2023-04-02T15:27:56;98362.19;;;17.26;49.91
53900;BME280;40509;32.858;-116.858;2023-04-02T15:30:33;98358.41;;;17.30;49.61
53900;BME280;40509;32.858;-116.858;2023-04-02T15:47:50;98360.53;;;17.36;49.86
53900;BME280;40509;32.858;-116.858;2023-04-02T15:53:49;98366.50;;;17.38;49.96
53900;BME280;40509;32.858;-116.858;2023-04-02T15:59:15;98371.34;;;17.43;50.25
53900;BME280;40509;32.858;-116.858;2023-04-02T16:01:57;98368.31;;;17.49;50.14
53900;BME280;40509;32.858;-116.858;2023-04-02T16:04:35;98370.22;;;17.58;49.62
53900;BME280;40509;32.858;-116.858;2023-04-02T16:07:23;98367.34;;;17.97;48.74
53900;BME280;40509;32.858;-116.858;2023-04-02T16:12:33;98370.75;;;19.20;45.77
53900;BME280;40509;32.858;-116.858;2023-04-02T16:15:27;98363.00;;;19.30;45.06
53900;BME280;40509;32.858;-116.858;2023-04-02T16:18:00;98362.16;;;19.30;44.63
53900;BME280;40509;32.858;-116.858;2023-04-02T16:20:42;98370.16;;;19.49;44.63
53900;BME280;40509;32.858;-116.858;2023-04-02T16:23:18;98369.44;;;19.47;44.50
53900;BME280;40509;32.858;-116.858;2023-04-02T16:34:03;98362.59;;;19.77;44.11
53900;BME280;40509;32.858;-116.858;2023-04-02T16:37:10;98366.44;;;19.73;44.57
53900;BME280;40509;32.858;-116.858;2023-04-02T16:39:46;98369.28;;;19.60;45.00
53900;BME280;40509;32.858;-116.858;2023-04-02T16:42:40;98376.31;;;19.27;46.33
53900;BME280;40509;32.858;-116.858;2023-04-02T16:48:13;98376.50;;;18.25;49.30
53900;BME280;40509;32.858;-116.858;2023-04-02T16:56:32;98380.06;;;18.35;48.58
53900;BME280;40509;32.858;-116.858;2023-04-02T17:04:51;98382.31;;;18.06;50.17
53900;BME280;40509;32.858;-116.858;2023-04-02T17:07:48;98382.06;;;18.09;50.10
53900;BME280;40509;32.858;-116.858;2023-04-02T17:10:31;98378.66;;;18.09;49.95
53900;BME280;40509;32.858;-116.858;2023-04-02T17:16:03;98367.81;;;18.13;49.93
53900;BME280;40509;32.858;-116.858;2023-04-02T17:18:33;98363.66;;;18.11;49.93
53900;BME280;40509;32.858;-116.858;2023-04-02T17:21:06;98371.41;;;18.12;49.89
53900;BME280;40509;32.858;-116.858;2023-04-02T17:23:54;98378.41;;;18.12;50.09
53900;BME280;40509;32.858;-116.858;2023-04-02T17:26:26;98375.44;;;18.16;49.97
53900;BME280;40509;32.858;-116.858;2023-04-02T17:28:56;98371.28;;;18.14;49.79
53900;BME280;40509;32.858;-116.858;2023-04-02T17:31:27;98383.88;;;18.20;49.62
53900;BME280;40509;32.858;-116.858;2023-04-02T17:34:08;98377.22;;;18.16;50.02
53900;BME280;40509;32.858;-116.858;2023-04-02T17:36:46;98375.44;;;18.16;49.80
53900;BME280;40509;32.858;-116.858;2023-04-02T17:50:44;98366.50;;;18.19;49.75